createdAt,value
2016-11-22T00:00:27.143Z,13.89
2016-11-22T00:01:42.069Z,13.96
2016-11-22T00:02:58.868Z,13.94
2016-11-22T00:04:10.710Z,13.91
2016-11-22T00:05:26.785Z,13.91
2016-11-22T00:06:40.443Z,13.91
2016-11-22T00:07:56.798Z,13.98
2016-11-22T00:09:12.754Z,14.04
2016-11-22T00:10:28.877Z,14.01
2016-11-22T00:11:45.559Z,13.98
2016-11-22T00:13:00.270Z,14.01
2016-11-22T00:14:15.515Z,13.91
2016-11-22T00:15:29.050Z,13.91
2016-11-22T00:16:45.343Z,13.99
2016-11-22T00:18:01.416Z,13.96
2016-11-22T00:19:15.927Z,13.92
2016-11-22T00:20:31.967Z,13.95
2016-11-22T00:21:48.092Z,13.92
2016-11-22T00:23:04.472Z,13.87
2016-11-22T00:24:21.350Z,13.94
2016-11-22T00:25:34.894Z,13.74
2016-11-22T00:26:51.175Z,13.84
2016-11-22T00:28:05.847Z,13.76
2016-11-22T00:29:18.027Z,13.67
2016-11-22T00:30:34.564Z,13.61
2016-11-22T00:31:48.890Z,13.55
2016-11-22T00:33:02.027Z,13.62
2016-11-22T00:34:16.848Z,13.58
2016-11-22T00:35:31.047Z,13.55
2016-11-22T00:36:47.864Z,13.54
2016-11-22T00:38:03.155Z,13.55
2016-11-22T00:39:19.736Z,13.55
2016-11-22T00:40:34.999Z,13.69
2016-11-22T00:41:51.002Z,13.55
2016-11-22T00:43:06.111Z,13.54
2016-11-22T00:44:21.987Z,13.54
2016-11-22T00:45:39.260Z,13.58
2016-11-22T00:46:54.566Z,13.58
2016-11-22T00:48:08.029Z,13.63
2016-11-22T00:49:23.673Z,13.67
2016-11-22T00:50:38.416Z,13.67
2016-11-22T00:51:54.469Z,13.62
2016-11-22T00:53:07.930Z,13.69
2016-11-22T00:54:22.906Z,13.63
2016-11-22T00:55:38.432Z,13.67
2016-11-22T00:56:55.606Z,13.61
2016-11-22T00:58:10.017Z,13.74
2016-11-22T00:59:26.418Z,13.63
2016-11-22T01:00:43.535Z,13.65
2016-11-22T01:01:58.994Z,13.73
2016-11-22T01:03:15.795Z,13.62
2016-11-22T01:04:32.278Z,13.73
2016-11-22T01:05:48.834Z,13.76
2016-11-22T01:07:05.137Z,13.73
2016-11-22T01:08:21.329Z,13.62
2016-11-22T01:09:36.386Z,13.73
2016-11-22T01:10:53.565Z,13.74
2016-11-22T01:12:10.725Z,13.77
2016-11-22T01:13:24.376Z,13.73
2016-11-22T01:14:39.462Z,13.77
2016-11-22T01:15:54.959Z,13.67
2016-11-22T01:17:09.611Z,13.69
2016-11-22T01:18:26.285Z,13.67
2016-11-22T01:19:42.574Z,13.69
2016-11-22T01:20:58.926Z,13.77
2016-11-22T01:22:15.507Z,13.73
2016-11-22T01:23:29.817Z,13.58
2016-11-22T01:24:46.233Z,13.65
2016-11-22T01:26:02.362Z,13.62
2016-11-22T01:27:18.910Z,13.62
2016-11-22T01:28:34.549Z,13.58
2016-11-22T01:29:50.818Z,13.52
2016-11-22T01:31:06.067Z,13.47
2016-11-22T01:32:20.795Z,13.52
2016-11-22T01:33:36.977Z,13.55
2016-11-22T01:34:52.477Z,13.52
2016-11-22T01:36:09.062Z,13.51
2016-11-22T01:37:25.327Z,13.56
2016-11-22T01:38:40.384Z,13.51
2016-11-22T01:39:55.052Z,13.46
2016-11-22T01:41:11.399Z,13.55
2016-11-22T01:42:26.625Z,13.49
2016-11-22T01:43:41.588Z,13.47
2016-11-22T01:44:56.649Z,13.49
2016-11-22T01:46:12.803Z,13.52
2016-11-22T01:47:29.155Z,13.44
2016-11-22T01:48:44.075Z,13.46
2016-11-22T01:50:00.204Z,13.46
2016-11-22T01:51:16.320Z,13.38
2016-11-22T01:52:31.376Z,13.41
2016-11-22T01:53:46.301Z,13.41
2016-11-22T01:55:02.890Z,13.43
2016-11-22T01:56:17.811Z,13.37
2016-11-22T01:57:31.003Z,13.38
2016-11-22T01:58:43.335Z,13.33
2016-11-22T02:00:00.148Z,13.32
2016-11-22T02:01:16.283Z,13.27
2016-11-22T02:02:32.890Z,13.22
2016-11-22T02:03:48.801Z,13.32
2016-11-22T02:05:05.920Z,13.29
2016-11-22T02:06:20.766Z,13.33
2016-11-22T02:07:37.082Z,13.32
2016-11-22T02:08:51.645Z,13.32
2016-11-22T02:10:06.776Z,13.3
2016-11-22T02:11:21.149Z,13.32
2016-11-22T02:12:38.000Z,13.36
2016-11-22T02:13:52.942Z,13.33
2016-11-22T02:15:08.997Z,13.32
2016-11-22T02:16:25.017Z,13.32
2016-11-22T02:17:40.416Z,13.29
2016-11-22T02:18:56.651Z,13.3
2016-11-22T02:20:12.394Z,13.27
2016-11-22T02:21:27.144Z,13.24
2016-11-22T02:22:43.837Z,13.21
2016-11-22T02:24:00.199Z,13.18
2016-11-22T02:25:15.009Z,13.24
2016-11-22T02:26:29.835Z,13.27
2016-11-22T02:27:46.385Z,13.24
2016-11-22T02:29:02.737Z,13.24
2016-11-22T02:30:15.764Z,13.18
2016-11-22T02:31:30.024Z,13.25
2016-11-22T02:32:44.965Z,13.25
2016-11-22T02:33:59.407Z,13.32
2016-11-22T02:35:15.670Z,13.11
2016-11-22T02:36:31.998Z,13.18
2016-11-22T02:37:46.415Z,13.17
2016-11-22T02:39:01.222Z,13.09
2016-11-22T02:40:15.913Z,13.07
2016-11-22T02:41:32.031Z,13.11
2016-11-22T02:42:46.820Z,13.03
2016-11-22T02:44:00.629Z,13.02
2016-11-22T02:45:14.997Z,13.12
2016-11-22T02:46:31.273Z,13.07
2016-11-22T02:47:48.107Z,13.04
2016-11-22T02:49:02.649Z,13.03
2016-11-22T02:50:17.976Z,13.06
2016-11-22T02:51:34.924Z,12.89
2016-11-22T02:52:50.449Z,13.06
2016-11-22T02:54:06.727Z,12.93
2016-11-22T02:55:20.347Z,13
2016-11-22T02:56:35.311Z,12.89
2016-11-22T02:57:51.523Z,12.77
2016-11-22T02:59:07.804Z,12.71
2016-11-22T03:00:23.764Z,12.67
2016-11-22T03:01:39.878Z,12.62
2016-11-22T03:02:56.007Z,12.66
2016-11-22T03:04:12.293Z,12.54
2016-11-22T03:05:28.319Z,12.6
2016-11-22T03:06:44.048Z,12.57
2016-11-22T03:07:57.307Z,12.57
2016-11-22T03:09:13.467Z,12.62
2016-11-22T03:10:29.730Z,12.6
2016-11-22T03:11:43.282Z,12.52
2016-11-22T03:12:57.787Z,12.51
2016-11-22T03:14:14.352Z,12.45
2016-11-22T03:15:30.164Z,12.41
2016-11-22T03:16:47.007Z,12.38
2016-11-22T03:18:02.084Z,12.38
2016-11-22T03:19:16.878Z,12.44
2016-11-22T03:20:32.996Z,12.46
2016-11-22T03:21:48.103Z,12.31
2016-11-22T03:23:04.385Z,12.34
2016-11-22T03:24:20.424Z,12.31
2016-11-22T03:25:32.305Z,12.27
2016-11-22T03:26:45.516Z,12.15
2016-11-22T03:28:02.189Z,12.3
2016-11-22T03:29:19.068Z,12.29
2016-11-22T03:30:35.586Z,12.15
2016-11-22T03:31:52.053Z,12.19
2016-11-22T03:33:07.667Z,12.12
2016-11-22T03:34:22.781Z,12.11
2016-11-22T03:35:39.150Z,12.19
2016-11-22T03:36:54.045Z,12.13
2016-11-22T03:38:10.604Z,12.2
2016-11-22T03:39:26.981Z,12.12
2016-11-22T03:40:41.624Z,12.3
2016-11-22T03:41:55.423Z,12.33
2016-11-22T03:43:10.113Z,12.3
2016-11-22T03:44:26.583Z,12.3
2016-11-22T03:45:41.560Z,12.34
2016-11-22T03:46:58.236Z,12.33
2016-11-22T03:48:14.385Z,12.29
2016-11-22T03:49:30.792Z,12.41
2016-11-22T03:50:45.713Z,12.38
2016-11-22T03:52:00.222Z,12.26
2016-11-22T03:53:13.556Z,12.29
2016-11-22T03:54:29.794Z,12.26
2016-11-22T03:55:46.042Z,12.37
2016-11-22T03:57:01.932Z,12.3
2016-11-22T03:58:17.428Z,12.3
2016-11-22T03:59:34.197Z,12.29
2016-11-22T04:00:48.890Z,12.38
2016-11-22T04:02:02.454Z,12.39
2016-11-22T04:03:18.361Z,12.37
2016-11-22T04:04:34.367Z,12.34
2016-11-22T04:05:49.674Z,12.39
2016-11-22T04:07:05.971Z,12.44
2016-11-22T04:08:22.531Z,12.26
2016-11-22T04:09:38.505Z,12.38
2016-11-22T04:10:51.631Z,12.37
2016-11-22T04:12:06.067Z,12.31
2016-11-22T04:13:22.524Z,12.3
2016-11-22T04:14:37.711Z,12.27
2016-11-22T04:15:52.630Z,12.34
2016-11-22T04:17:07.779Z,12.33
2016-11-22T04:18:22.438Z,12.37
2016-11-22T04:19:38.344Z,12.42
2016-11-22T04:20:55.017Z,12.26
2016-11-22T04:22:09.845Z,12.38
2016-11-22T04:23:26.127Z,12.42
2016-11-22T04:24:42.911Z,12.39
2016-11-22T04:25:56.030Z,12.39
2016-11-22T04:27:10.084Z,12.38
2016-11-22T04:28:26.002Z,12.39
2016-11-22T04:29:40.643Z,12.44
2016-11-22T04:30:54.828Z,12.42
2016-11-22T04:32:09.415Z,12.37
2016-11-22T04:33:25.809Z,12.42
2016-11-22T04:34:41.454Z,12.31
2016-11-22T04:35:57.927Z,12.37
2016-11-22T04:37:13.695Z,12.34
2016-11-22T04:38:28.771Z,12.39
2016-11-22T04:39:43.222Z,12.38
2016-11-22T04:41:00.010Z,12.41
2016-11-22T04:42:14.830Z,12.38
2016-11-22T04:43:28.846Z,12.38
2016-11-22T04:44:45.265Z,12.41
2016-11-22T04:46:01.623Z,12.44
2016-11-22T04:47:16.648Z,12.42
2016-11-22T04:48:31.782Z,12.44
2016-11-22T04:49:46.872Z,12.46
2016-11-22T04:51:03.570Z,12.44
2016-11-22T04:52:19.798Z,12.38
2016-11-22T04:53:34.698Z,12.41
2016-11-22T04:54:50.340Z,12.42
2016-11-22T04:56:06.712Z,12.42
2016-11-22T04:57:23.018Z,12.42
2016-11-22T04:58:38.123Z,12.45
2016-11-22T04:59:51.748Z,12.41
2016-11-22T05:01:06.920Z,12.41
2016-11-22T05:02:20.961Z,12.44
2016-11-22T05:03:37.085Z,12.27
2016-11-22T05:04:52.322Z,12.39
2016-11-22T05:06:08.887Z,12.31
2016-11-22T05:07:25.703Z,12.27
2016-11-22T05:08:40.968Z,12.37
2016-11-22T05:09:57.255Z,12.37
2016-11-22T05:11:13.959Z,12.31
2016-11-22T05:12:30.269Z,12.2
2016-11-22T05:13:46.436Z,12.26
2016-11-22T05:15:01.341Z,12.19
2016-11-22T05:16:18.082Z,12.13
2016-11-22T05:17:31.235Z,12.09
2016-11-22T05:18:45.664Z,12.11
2016-11-22T05:19:58.391Z,12.01
2016-11-22T05:21:14.960Z,12.01
2016-11-22T05:22:29.821Z,11.94
2016-11-22T05:23:46.477Z,12.01
2016-11-22T05:25:02.526Z,12.02
2016-11-22T05:26:16.632Z,12.01
2016-11-22T05:27:33.888Z,11.96
2016-11-22T05:28:47.043Z,11.85
2016-11-22T05:30:01.949Z,11.74
2016-11-22T05:31:17.638Z,11.7
2016-11-22T05:32:32.883Z,11.74
2016-11-22T05:33:49.803Z,11.75
2016-11-22T05:35:05.225Z,11.64
2016-11-22T05:36:19.070Z,11.72
2016-11-22T05:37:33.504Z,11.64
2016-11-22T05:38:47.940Z,11.62
2016-11-22T05:40:04.644Z,11.62
2016-11-22T05:41:20.301Z,11.57
2016-11-22T05:42:36.603Z,11.62
2016-11-22T05:43:51.362Z,11.62
2016-11-22T05:45:08.311Z,11.59
2016-11-22T05:46:24.713Z,11.54
2016-11-22T05:47:41.155Z,11.53
2016-11-22T05:48:56.935Z,11.49
2016-11-22T05:50:12.618Z,11.49
2016-11-22T05:51:29.453Z,11.44
2016-11-22T05:52:45.821Z,11.49
2016-11-22T05:54:00.485Z,11.44
2016-11-22T05:55:13.926Z,11.56
2016-11-22T05:56:30.748Z,11.54
2016-11-22T05:57:47.659Z,11.62
2016-11-22T05:59:02.531Z,11.59
2016-11-22T06:00:19.638Z,11.67
2016-11-22T06:01:35.837Z,11.64
2016-11-22T06:02:51.991Z,11.72
2016-11-22T06:04:05.708Z,11.71
2016-11-22T06:05:20.705Z,11.68
2016-11-22T06:06:35.857Z,11.72
2016-11-22T06:07:50.865Z,11.74
2016-11-22T06:09:05.368Z,11.65
2016-11-22T06:10:20.619Z,11.68
2016-11-22T06:11:35.295Z,11.7
2016-11-22T06:12:51.879Z,11.74
2016-11-22T06:14:07.992Z,11.7
2016-11-22T06:15:23.669Z,11.68
2016-11-22T06:16:38.318Z,11.71
2016-11-22T06:17:54.345Z,11.7
2016-11-22T06:19:10.231Z,11.72
2016-11-22T06:20:24.233Z,11.85
2016-11-22T06:21:40.419Z,11.78
2016-11-22T06:22:55.166Z,11.78
2016-11-22T06:24:11.047Z,11.67
2016-11-22T06:25:26.774Z,11.74
2016-11-22T06:26:43.580Z,11.7
2016-11-22T06:28:00.156Z,11.68
2016-11-22T06:29:14.952Z,11.74
2016-11-22T06:30:32.068Z,11.75
2016-11-22T06:31:47.193Z,11.65
2016-11-22T06:33:04.280Z,11.61
2016-11-22T06:34:20.431Z,11.54
2016-11-22T06:35:35.079Z,11.57
2016-11-22T06:36:51.887Z,11.59
2016-11-22T06:38:08.194Z,11.59
2016-11-22T06:39:24.386Z,11.43
2016-11-22T06:40:40.422Z,11.39
2016-11-22T06:41:56.986Z,11.44
2016-11-22T06:43:13.422Z,11.44
2016-11-22T06:44:28.320Z,11.47
2016-11-22T06:45:44.586Z,11.41
2016-11-22T06:47:01.376Z,11.41
2016-11-22T06:48:17.708Z,11.46
2016-11-22T06:49:32.563Z,11.44
2016-11-22T06:50:47.274Z,11.47
2016-11-22T06:52:03.234Z,11.39
2016-11-22T06:53:18.552Z,11.43
2016-11-22T06:54:35.409Z,11.43
2016-11-22T06:55:49.739Z,11.47
2016-11-22T06:57:06.884Z,11.43
2016-11-22T06:58:20.108Z,11.39
2016-11-22T06:59:36.365Z,11.47
2016-11-22T07:00:51.706Z,11.47
2016-11-22T07:02:08.398Z,11.47
2016-11-22T07:03:23.526Z,11.35
2016-11-22T07:04:40.291Z,11.43
2016-11-22T07:05:56.991Z,11.44
2016-11-22T07:07:13.002Z,11.39
2016-11-22T07:08:28.231Z,11.41
2016-11-22T07:09:45.298Z,11.41
2016-11-22T07:11:01.576Z,11.43
2016-11-22T07:12:16.681Z,11.43
2016-11-22T07:13:32.123Z,11.34
2016-11-22T07:14:48.442Z,11.28
2016-11-22T07:16:03.447Z,11.35
2016-11-22T07:17:18.497Z,11.29
2016-11-22T07:18:35.155Z,11.31
2016-11-22T07:19:50.695Z,11.39
2016-11-22T07:21:05.097Z,11.32
2016-11-22T07:22:21.356Z,11.43
2016-11-22T07:23:36.015Z,11.39
2016-11-22T07:24:49.754Z,11.38
2016-11-22T07:26:05.688Z,11.49
2016-11-22T07:27:20.620Z,11.47
2016-11-22T07:28:36.980Z,11.54
2016-11-22T07:29:53.179Z,11.59
2016-11-22T07:31:07.648Z,11.5
2016-11-22T07:32:23.557Z,11.53
2016-11-22T07:33:38.639Z,11.75
2016-11-22T07:34:54.511Z,11.74
2016-11-22T07:36:07.990Z,11.72
2016-11-22T07:37:22.391Z,11.75
2016-11-22T07:38:38.576Z,11.8
2016-11-22T07:39:55.074Z,11.93
2016-11-22T07:41:10.824Z,11.94
2016-11-22T07:42:27.397Z,11.9
2016-11-22T07:43:42.873Z,12.01
2016-11-22T07:44:57.924Z,12.01
2016-11-22T07:46:14.065Z,12.11
2016-11-22T07:47:28.774Z,12.05
2016-11-22T07:48:45.253Z,12.13
2016-11-22T07:49:59.327Z,12.2
2016-11-22T07:51:13.017Z,12.19
2016-11-22T07:52:28.168Z,12.26
2016-11-22T07:53:44.966Z,12.3
2016-11-22T07:54:58.707Z,12.31
2016-11-22T07:56:13.392Z,12.15
2016-11-22T07:57:26.968Z,12.27
2016-11-22T07:58:41.871Z,12.26
2016-11-22T07:59:56.968Z,12.44
2016-11-22T08:01:11.809Z,12.46
2016-11-22T08:02:28.298Z,12.41
2016-11-22T08:03:43.490Z,12.41
2016-11-22T08:05:00.350Z,12.39
2016-11-22T08:06:16.999Z,12.49
2016-11-22T08:07:33.206Z,12.51
2016-11-22T08:08:48.637Z,12.6
2016-11-22T08:10:01.870Z,12.63
2016-11-22T08:11:17.797Z,12.63
2016-11-22T08:12:32.348Z,12.57
2016-11-22T08:13:49.309Z,12.67
2016-11-22T08:15:03.863Z,12.67
2016-11-22T08:16:18.785Z,12.63
2016-11-22T08:17:34.272Z,12.69
2016-11-22T08:18:50.644Z,12.71
2016-11-22T08:20:04.106Z,12.75
2016-11-22T08:21:20.637Z,12.85
2016-11-22T08:22:36.710Z,12.88
2016-11-22T08:23:53.284Z,12.96
2016-11-22T08:25:06.594Z,12.95
2016-11-22T08:26:22.925Z,13.03
2016-11-22T08:27:39.704Z,13.09
2016-11-22T08:28:52.038Z,13.15
2016-11-22T08:30:06.888Z,13.21
2016-11-22T08:31:22.847Z,13.29
2016-11-22T08:32:38.809Z,13.36
2016-11-22T08:33:54.212Z,13.4
2016-11-22T08:35:06.463Z,13.51
2016-11-22T08:36:19.582Z,13.61
2016-11-22T08:37:36.433Z,13.67
2016-11-22T08:38:52.454Z,13.63
2016-11-22T08:40:07.061Z,13.81
2016-11-22T08:41:20.186Z,13.89
2016-11-22T08:42:37.039Z,13.92
2016-11-22T08:43:51.812Z,14.06
2016-11-22T08:45:07.467Z,14.1
2016-11-22T08:46:21.955Z,14.16
2016-11-22T08:47:38.536Z,14.16
2016-11-22T08:48:52.874Z,14.16
2016-11-22T08:50:09.317Z,14.2
2016-11-22T08:51:24.439Z,14.32
2016-11-22T08:52:38.223Z,14.37
2016-11-22T08:53:54.002Z,14.34
2016-11-22T08:55:08.730Z,14.28
2016-11-22T08:56:25.615Z,14.21
2016-11-22T08:57:41.145Z,14.24
2016-11-22T08:58:58.102Z,14.07
2016-11-22T09:00:12.121Z,14.02
2016-11-22T09:01:28.266Z,14.14
2016-11-22T09:02:44.571Z,14.04
2016-11-22T09:04:00.851Z,14.09
2016-11-22T09:05:15.676Z,13.91
2016-11-22T09:06:31.168Z,13.92
2016-11-22T09:07:47.220Z,13.87
2016-11-22T09:09:04.345Z,13.95
2016-11-22T09:10:19.362Z,13.92
2016-11-22T09:11:36.065Z,13.96
2016-11-22T09:12:52.481Z,13.91
2016-11-22T09:14:08.632Z,14.04
2016-11-22T09:15:23.639Z,14.13
2016-11-22T09:16:40.104Z,14.12
2016-11-22T09:17:56.059Z,13.98
2016-11-22T09:19:10.975Z,14.09
2016-11-22T09:20:25.931Z,13.99
2016-11-22T09:21:41.254Z,13.91
2016-11-22T09:22:57.552Z,13.95
2016-11-22T09:24:12.216Z,13.95
2016-11-22T09:25:28.508Z,13.94
2016-11-22T09:26:44.565Z,13.99
2016-11-22T09:28:01.010Z,14.09
2016-11-22T09:29:15.774Z,14.09
2016-11-22T09:30:29.558Z,14.06
2016-11-22T09:31:44.321Z,13.99
2016-11-22T09:33:01.250Z,14.06
2016-11-22T09:34:16.345Z,14.13
2016-11-22T09:35:30.870Z,14.19
2016-11-22T09:36:44.097Z,14.34
2016-11-22T09:37:57.579Z,14.46
2016-11-22T09:39:14.278Z,14.46
2016-11-22T09:40:28.704Z,14.67
2016-11-22T09:41:44.447Z,14.84
2016-11-22T09:42:59.538Z,14.78
2016-11-22T09:44:16.319Z,14.83
2016-11-22T09:45:31.613Z,14.88
2016-11-22T09:46:47.924Z,14.81
2016-11-22T09:48:04.358Z,14.84
2016-11-22T09:49:20.730Z,14.83
2016-11-22T09:50:36.876Z,14.71
2016-11-22T09:51:53.689Z,14.61
2016-11-22T09:53:10.069Z,14.62
2016-11-22T09:54:26.933Z,14.57
2016-11-22T09:55:40.336Z,14.52
2016-11-22T09:56:55.616Z,14.52
2016-11-22T09:58:10.267Z,14.56
2016-11-22T09:59:23.516Z,14.53
2016-11-22T10:00:37.385Z,14.57
2016-11-22T10:01:51.874Z,14.57
2016-11-22T10:03:07.138Z,14.67
2016-11-22T10:04:23.914Z,14.74
2016-11-22T10:05:39.075Z,14.78
2016-11-22T10:06:55.165Z,14.86
2016-11-22T10:08:10.453Z,14.99
2016-11-22T10:09:26.814Z,15.06
2016-11-22T10:10:42.929Z,15.05
2016-11-22T10:11:59.052Z,15.11
2016-11-22T10:13:15.268Z,15.2
2016-11-22T10:14:30.019Z,15.21
2016-11-22T10:15:46.184Z,15.3
2016-11-22T10:17:02.769Z,15.33
2016-11-22T10:18:16.234Z,15.51
2016-11-22T10:19:29.889Z,15.46
2016-11-22T10:20:44.978Z,15.56
2016-11-22T10:22:01.279Z,15.57
2016-11-22T10:23:16.359Z,15.64
2016-11-22T10:24:32.516Z,15.6
2016-11-22T10:25:48.982Z,15.7
2016-11-22T10:27:06.074Z,15.67
2016-11-22T10:28:20.143Z,15.46
2016-11-22T10:29:37.139Z,15.46
2016-11-22T10:30:52.211Z,15.39
2016-11-22T10:32:08.928Z,15.41
2016-11-22T10:33:24.798Z,15.42
2016-11-22T10:34:39.597Z,15.51
2016-11-22T10:35:55.514Z,15.48
2016-11-22T10:37:10.585Z,15.43
2016-11-22T10:38:24.113Z,15.39
2016-11-22T10:39:41.081Z,15.45
2016-11-22T10:40:57.262Z,15.41
2016-11-22T10:42:10.318Z,15.38
2016-11-22T10:43:24.668Z,15.35
2016-11-22T10:44:41.933Z,15.38
2016-11-22T10:45:56.507Z,15.39
2016-11-22T10:47:11.489Z,15.43
2016-11-22T10:48:28.283Z,15.41
2016-11-22T10:49:43.357Z,15.36
2016-11-22T10:51:00.262Z,15.31
2016-11-22T10:52:16.887Z,15.27
2016-11-22T10:53:29.961Z,15.24
2016-11-22T10:54:45.997Z,15.08
2016-11-22T10:56:00.909Z,15.24
2016-11-22T10:57:15.452Z,15.06
2016-11-22T10:58:32.025Z,15.26
2016-11-22T10:59:48.352Z,15.35
2016-11-22T11:01:03.207Z,15.36
2016-11-22T11:02:20.288Z,15.41
2016-11-22T11:03:36.576Z,15.41
2016-11-22T11:04:51.939Z,15.39
2016-11-22T11:06:06.688Z,15.39
2016-11-22T11:07:23.163Z,15.41
2016-11-22T11:08:38.432Z,15.43
2016-11-22T11:09:54.380Z,15.42
2016-11-22T11:11:09.208Z,15.38
2016-11-22T11:12:23.481Z,15.3
2016-11-22T11:13:40.006Z,15.36
2016-11-22T11:14:55.149Z,15.28
2016-11-22T11:16:12.015Z,15.27
2016-11-22T11:17:26.948Z,15.23
2016-11-22T11:18:42.023Z,15.21
2016-11-22T11:19:57.481Z,15.19
2016-11-22T11:21:13.390Z,15.06
2016-11-22T11:22:29.418Z,15.08
2016-11-22T11:23:43.330Z,15.06
2016-11-22T11:24:59.615Z,15.08
2016-11-22T11:26:15.986Z,15.23
2016-11-22T11:27:30.947Z,15.27
2016-11-22T11:28:47.382Z,15.3
2016-11-22T11:30:02.493Z,15.3
2016-11-22T11:31:19.195Z,15.26
2016-11-22T11:32:35.786Z,15.43
2016-11-22T11:33:52.324Z,15.43
2016-11-22T11:35:05.264Z,15.48
2016-11-22T11:36:20.335Z,15.6
2016-11-22T11:37:36.786Z,15.61
2016-11-22T11:38:53.244Z,15.63
2016-11-22T11:40:09.541Z,15.68
2016-11-22T11:41:26.411Z,15.76
2016-11-22T11:42:39.447Z,15.84
2016-11-22T11:43:53.978Z,15.81
2016-11-22T11:45:08.286Z,15.81
2016-11-22T11:46:24.574Z,15.75
2016-11-22T11:47:39.413Z,15.74
2016-11-22T11:48:54.586Z,15.66
2016-11-22T11:50:09.831Z,15.67
2016-11-22T11:51:24.383Z,15.6
2016-11-22T11:52:41.104Z,15.49
2016-11-22T11:53:57.480Z,15.67
2016-11-22T11:55:12.588Z,15.59
2016-11-22T11:56:27.848Z,15.61
2016-11-22T11:57:42.266Z,15.66
2016-11-22T11:58:57.528Z,15.74
2016-11-22T12:00:11.570Z,15.74
2016-11-22T12:01:27.079Z,15.7
2016-11-22T12:02:40.803Z,15.75
2016-11-22T12:03:56.717Z,15.74
2016-11-22T12:05:13.417Z,15.7
2016-11-22T12:06:29.705Z,15.72
2016-11-22T12:07:45.797Z,15.7
2016-11-22T12:09:02.025Z,15.63
2016-11-22T12:10:18.734Z,15.56
2016-11-22T12:11:32.372Z,15.48
2016-11-22T12:12:47.024Z,15.41
2016-11-22T12:14:02.239Z,15.41
2016-11-22T12:15:18.736Z,15.33
2016-11-22T12:16:34.165Z,15.35
2016-11-22T12:17:47.586Z,15.26
2016-11-22T12:19:03.093Z,15.21
2016-11-22T12:20:19.143Z,15.2
2016-11-22T12:21:35.915Z,15.26
2016-11-22T12:22:52.704Z,15.12
2016-11-22T12:24:08.623Z,15.11
2016-11-22T12:25:23.237Z,15.11
2016-11-22T12:26:38.071Z,15.11
2016-11-22T12:27:54.759Z,15.12
2016-11-22T12:29:09.437Z,15.06
2016-11-22T12:30:24.296Z,15.11
2016-11-22T12:31:39.731Z,15.05
2016-11-22T12:32:55.461Z,15.11
2016-11-22T12:34:11.588Z,15.01
2016-11-22T12:35:28.136Z,15.03
2016-11-22T12:36:44.541Z,14.99
2016-11-22T12:38:01.099Z,14.88
2016-11-22T12:39:16.381Z,15.05
2016-11-22T12:40:32.139Z,15.01
2016-11-22T12:41:47.438Z,15.08
2016-11-22T12:43:02.971Z,15.06
2016-11-22T12:44:19.067Z,15.09
2016-11-22T12:45:36.333Z,15.09
2016-11-22T12:46:53.142Z,15.08
2016-11-22T12:48:09.191Z,15.26
2016-11-22T12:49:23.613Z,15.31
2016-11-22T12:50:38.608Z,15.19
2016-11-22T12:51:55.205Z,15.27
2016-11-22T12:53:11.920Z,15.24
2016-11-22T12:54:26.823Z,15.11
2016-11-22T12:55:43.110Z,15.13
2016-11-22T12:56:57.941Z,15.06
2016-11-22T12:58:14.790Z,15.03
2016-11-22T12:59:31.947Z,14.94
2016-11-22T13:00:48.055Z,15.03
2016-11-22T13:02:02.988Z,15.02
2016-11-22T13:03:20.314Z,14.9
2016-11-22T13:04:36.322Z,14.9
2016-11-22T13:05:52.047Z,14.86
2016-11-22T13:07:07.060Z,14.86
2016-11-22T13:08:22.375Z,14.9
2016-11-22T13:09:38.012Z,14.8
2016-11-22T13:10:53.361Z,14.8
2016-11-22T13:12:09.571Z,14.86
2016-11-22T13:13:26.673Z,14.74
2016-11-22T13:14:41.791Z,14.81
2016-11-22T13:15:56.904Z,14.74
2016-11-22T13:17:12.995Z,14.84
2016-11-22T13:18:28.508Z,14.75
2016-11-22T13:19:44.675Z,14.65
2016-11-22T13:21:01.539Z,14.64
2016-11-22T13:22:18.223Z,14.64
2016-11-22T13:23:31.687Z,14.67
2016-11-22T13:24:48.214Z,14.68
2016-11-22T13:26:03.969Z,14.65
2016-11-22T13:27:19.054Z,14.6
2016-11-22T13:28:35.345Z,14.61
2016-11-22T13:29:49.346Z,14.54
2016-11-22T13:31:05.842Z,14.57
2016-11-22T13:32:22.581Z,14.6
2016-11-22T13:33:39.511Z,14.64
2016-11-22T13:34:54.299Z,14.61
2016-11-22T13:36:11.097Z,14.64
2016-11-22T13:37:25.909Z,14.65
2016-11-22T13:38:41.340Z,14.65
2016-11-22T13:39:56.405Z,14.71
2016-11-22T13:41:09.710Z,14.57
2016-11-22T13:42:25.998Z,14.56
2016-11-22T13:43:38.801Z,14.57
2016-11-22T13:44:55.499Z,14.6
2016-11-22T13:46:11.688Z,14.57
2016-11-22T13:47:28.230Z,14.56
2016-11-22T13:48:44.292Z,14.54
2016-11-22T13:50:01.391Z,14.56
2016-11-22T13:51:17.831Z,14.61
2016-11-22T13:52:34.564Z,14.6
2016-11-22T13:53:50.868Z,14.57
2016-11-22T13:55:05.296Z,14.53
2016-11-22T13:56:19.565Z,14.54
2016-11-22T13:57:36.263Z,14.56
2016-11-22T13:58:52.559Z,14.53
2016-11-22T14:00:07.183Z,14.47
2016-11-22T14:01:23.495Z,14.52
2016-11-22T14:02:39.702Z,14.44
2016-11-22T14:03:55.146Z,14.53
2016-11-22T14:05:11.717Z,14.42
2016-11-22T14:06:25.198Z,14.39
2016-11-22T14:07:41.500Z,14.29
2016-11-22T14:08:56.600Z,14.28
2016-11-22T14:10:11.442Z,14.31
2016-11-22T14:11:27.747Z,14.29
2016-11-22T14:12:43.243Z,14.32
2016-11-22T14:13:56.547Z,14.29
2016-11-22T14:15:12.770Z,14.31
2016-11-22T14:16:29.919Z,14.21
2016-11-22T14:17:45.561Z,14.17
2016-11-22T14:19:01.551Z,14.24
2016-11-22T14:20:18.259Z,14.19
2016-11-22T14:21:33.414Z,14.21
2016-11-22T14:22:48.102Z,14.21
2016-11-22T14:24:02.870Z,14.19
2016-11-22T14:25:18.926Z,14.16
2016-11-22T14:26:35.885Z,14.17
2016-11-22T14:27:49.432Z,14.12
2016-11-22T14:29:05.909Z,14.02
2016-11-22T14:30:22.356Z,14.13
2016-11-22T14:31:36.006Z,14.19
2016-11-22T14:32:51.134Z,14.12
2016-11-22T14:34:07.795Z,14.2
2016-11-22T14:35:24.726Z,14.2
2016-11-22T14:36:40.918Z,14.13
2016-11-22T14:37:55.760Z,14.09
2016-11-22T14:39:12.079Z,14.12
2016-11-22T14:40:28.785Z,14.02
2016-11-22T14:41:42.043Z,13.92
2016-11-22T14:42:57.935Z,13.91
2016-11-22T14:44:14.677Z,13.98
2016-11-22T14:45:30.076Z,13.88
2016-11-22T14:46:47.178Z,13.81
2016-11-22T14:48:02.670Z,13.79
2016-11-22T14:49:19.133Z,13.8
2016-11-22T14:50:35.725Z,13.77
2016-11-22T14:51:50.369Z,13.74
2016-11-22T14:53:05.227Z,13.69
2016-11-22T14:54:21.528Z,13.7
2016-11-22T14:55:37.840Z,13.69
2016-11-22T14:56:54.935Z,13.59
2016-11-22T14:58:11.112Z,13.67
2016-11-22T14:59:27.093Z,13.61
2016-11-22T15:00:40.881Z,13.55
2016-11-22T15:01:57.414Z,13.47
2016-11-22T15:03:12.923Z,13.54
2016-11-22T15:04:29.320Z,13.51
2016-11-22T15:05:45.705Z,13.54
2016-11-22T15:06:59.429Z,13.52
2016-11-22T15:08:16.370Z,13.4
2016-11-22T15:09:32.781Z,13.51
2016-11-22T15:10:47.910Z,13.43
2016-11-22T15:12:03.811Z,13.38
2016-11-22T15:13:19.764Z,13.43
2016-11-22T15:14:35.534Z,13.33
2016-11-22T15:15:52.089Z,13.32
2016-11-22T15:17:08.580Z,13.27
2016-11-22T15:18:23.795Z,13.27
2016-11-22T15:19:38.889Z,13.21
2016-11-22T15:20:54.076Z,13.07
2016-11-22T15:22:11.046Z,13.18
2016-11-22T15:23:27.726Z,13.14
2016-11-22T15:24:44.578Z,13.12
2016-11-22T15:25:57.659Z,13.04
2016-11-22T15:27:12.902Z,13.06
2016-11-22T15:28:28.053Z,13.03
2016-11-22T15:29:43.978Z,12.92
2016-11-22T15:30:58.805Z,12.97
2016-11-22T15:32:14.921Z,12.97
2016-11-22T15:33:29.378Z,13
2016-11-22T15:34:45.853Z,12.87
2016-11-22T15:36:02.564Z,12.93
2016-11-22T15:37:19.273Z,12.95
2016-11-22T15:38:35.981Z,12.89
2016-11-22T15:39:52.158Z,12.89
2016-11-22T15:41:06.390Z,12.92
2016-11-22T15:42:22.656Z,12.81
2016-11-22T15:43:38.770Z,12.78
2016-11-22T15:44:55.215Z,12.78
2016-11-22T15:46:07.549Z,12.75
2016-11-22T15:47:24.432Z,12.79
2016-11-22T15:48:39.344Z,12.71
2016-11-22T15:49:55.376Z,12.69
2016-11-22T15:51:12.169Z,12.67
2016-11-22T15:52:27.018Z,12.59
2016-11-22T15:53:41.800Z,12.69
2016-11-22T15:54:58.352Z,12.7
2016-11-22T15:56:15.296Z,12.57
2016-11-22T15:57:30.631Z,12.69
2016-11-22T15:58:45.347Z,12.59
2016-11-22T16:00:00.027Z,12.71
2016-11-22T16:01:15.213Z,12.67
2016-11-22T16:02:31.515Z,12.6
2016-11-22T16:03:46.264Z,12.67
2016-11-22T16:05:00.717Z,12.67
2016-11-22T16:06:16.879Z,12.66
2016-11-22T16:07:32.780Z,12.7
2016-11-22T16:08:48.757Z,12.59
2016-11-22T16:10:04.674Z,12.69
2016-11-22T16:11:20.808Z,12.62
2016-11-22T16:12:37.396Z,12.69
2016-11-22T16:13:51.709Z,12.59
2016-11-22T16:15:08.505Z,12.62